createdAt,value
2022-08-02T00:00:18.120Z,15.61
2022-08-02T00:03:38.600Z,15.56
2022-08-02T00:06:40.948Z,15.54
2022-08-02T00:09:44.146Z,15.56
2022-08-02T00:12:46.561Z,15.56
2022-08-02T00:15:48.586Z,15.50
2022-08-02T00:18:50.917Z,15.44
2022-08-02T00:21:52.917Z,15.43
2022-08-02T00:24:55.084Z,15.49
2022-08-02T00:27:57.123Z,15.47
2022-08-02T00:30:59.748Z,15.37
2022-08-02T00:34:26.361Z,15.34
2022-08-02T00:37:24.589Z,15.44
2022-08-02T00:40:31.676Z,15.44
2022-08-02T00:43:34.065Z,15.57
2022-08-02T00:46:36.033Z,15.60
2022-08-02T00:49:38.361Z,15.68
2022-08-02T00:52:41.046Z,15.67
2022-08-02T00:55:43.413Z,15.70
2022-08-02T00:58:45.424Z,15.75
2022-08-02T01:01:56.489Z,15.85
2022-08-02T01:05:00.289Z,15.94
2022-08-02T01:08:03.111Z,15.97
2022-08-02T01:11:05.164Z,16.02
2022-08-02T01:14:11.279Z,16.01
2022-08-02T01:17:51.355Z,16.05
2022-08-02T01:21:23.714Z,16.07
2022-08-02T01:24:59.182Z,16.14
2022-08-02T01:28:07.525Z,16.11
2022-08-02T01:31:18.742Z,16.14
2022-08-02T01:34:30.759Z,16.11
2022-08-02T01:37:39.179Z,16.04
2022-08-02T01:40:44.483Z,16.04
2022-08-02T01:43:49.728Z,16.09
2022-08-02T01:46:53.363Z,16.08
2022-08-02T01:49:58.832Z,16.08
2022-08-02T01:53:09.409Z,16.09
2022-08-02T01:56:12.970Z,16.00
2022-08-02T01:59:19.157Z,16.01
2022-08-02T02:02:23.419Z,15.91
2022-08-02T02:05:27.264Z,15.95
2022-08-02T02:08:38.037Z,15.90
2022-08-02T02:12:05.227Z,15.85
2022-08-02T02:15:09.491Z,15.81
2022-08-02T02:18:24.762Z,15.80
2022-08-02T02:21:27.768Z,15.83
2022-08-02T02:24:30.682Z,15.81
2022-08-02T02:27:37.126Z,15.83
2022-08-02T02:30:49.086Z,15.74
2022-08-02T02:34:00.713Z,15.77
2022-08-02T02:37:08.498Z,15.71
2022-08-02T02:40:11.986Z,15.68
2022-08-02T02:43:17.034Z,15.68
2022-08-02T02:46:21.702Z,15.61
2022-08-02T02:49:25.737Z,15.57
2022-08-02T02:52:28.608Z,15.50
2022-08-02T02:55:32.055Z,15.47
2022-08-02T02:58:34.574Z,15.46
2022-08-02T03:01:56.309Z,15.47
2022-08-02T03:05:02.905Z,15.42
2022-08-02T03:08:05.460Z,15.42
2022-08-02T03:11:09.863Z,15.42
2022-08-02T03:14:13.571Z,15.24
2022-08-02T03:17:18.041Z,15.26
2022-08-02T03:20:23.081Z,15.19
2022-08-02T03:23:25.208Z,15.22
2022-08-02T03:26:27.792Z,15.19
2022-08-02T03:29:34.123Z,15.27
2022-08-02T03:32:40.077Z,15.30
2022-08-02T03:35:43.159Z,15.34
2022-08-02T03:38:46.303Z,15.39
2022-08-02T03:41:50.210Z,15.42
2022-08-02T03:44:53.734Z,15.47
2022-08-02T03:47:58.735Z,15.46
2022-08-02T03:51:01.543Z,15.37
2022-08-02T03:54:04.473Z,15.30
2022-08-02T03:57:10.471Z,15.22
2022-08-02T04:00:18.978Z,15.22
2022-08-02T04:03:21.365Z,15.13
2022-08-02T04:06:28.359Z,15.13
2022-08-02T04:09:31.118Z,15.12
2022-08-02T04:12:33.077Z,15.12
2022-08-02T04:15:36.515Z,15.07
2022-08-02T04:18:46.602Z,15.03
2022-08-02T04:21:52.546Z,15.04
2022-08-02T04:24:59.958Z,15.06
2022-08-02T04:28:17.797Z,15.07
2022-08-02T04:31:21.577Z,15.09
2022-08-02T04:34:24.104Z,15.16
2022-08-02T04:37:26.999Z,15.16
2022-08-02T04:40:29.353Z,15.19
2022-08-02T04:43:32.549Z,15.18
2022-08-02T04:46:36.844Z,15.24
2022-08-02T04:49:39.243Z,15.27
2022-08-02T04:52:45.680Z,15.29
2022-08-02T04:55:48.126Z,15.32
2022-08-02T04:58:50.319Z,15.39
2022-08-02T05:01:52.426Z,15.49
2022-08-02T05:04:54.901Z,15.54
2022-08-02T05:07:57.857Z,15.57
2022-08-02T05:11:00.240Z,15.60
2022-08-02T05:14:02.291Z,15.66
2022-08-02T05:17:04.935Z,15.75
2022-08-02T05:20:07.466Z,15.83
2022-08-02T05:23:11.099Z,16.01
2022-08-02T05:26:13.087Z,16.22
2022-08-02T05:29:15.328Z,16.36
2022-08-02T05:32:18.178Z,16.55
2022-08-02T05:35:22.476Z,16.68
2022-08-02T05:38:26.058Z,16.75
2022-08-02T05:41:28.522Z,16.79
2022-08-02T05:44:30.514Z,16.80
2022-08-02T05:47:33.233Z,16.89
2022-08-02T05:50:40.697Z,17.10
2022-08-02T05:54:01.622Z,17.28
2022-08-02T05:57:20.991Z,17.58
2022-08-02T06:00:24.110Z,17.81
2022-08-02T06:03:37.198Z,18.05
2022-08-02T06:06:44.780Z,18.02
2022-08-02T06:09:51.052Z,18.13
2022-08-02T06:13:14.364Z,18.22
2022-08-02T06:16:18.025Z,18.63
2022-08-02T06:19:51.926Z,18.71
2022-08-02T06:22:58.660Z,18.70
2022-08-02T06:26:01.996Z,18.79
2022-08-02T06:29:04.889Z,19.04
2022-08-02T06:32:07.753Z,19.48
2022-08-02T06:35:09.896Z,19.57
2022-08-02T06:38:22.382Z,19.57
2022-08-02T06:41:26.497Z,19.51
2022-08-02T06:47:51.549Z,19.63
2022-08-02T06:50:53.756Z,19.86
2022-08-02T06:53:55.859Z,19.92
2022-08-02T06:56:58.648Z,20.22
2022-08-02T07:00:08.028Z,20.13
2022-08-02T07:03:10.632Z,20.29
2022-08-02T07:06:12.886Z,20.70
2022-08-02T07:09:21.156Z,20.67
2022-08-02T07:12:23.474Z,21.19
2022-08-02T07:15:25.883Z,21.11
2022-08-02T07:18:28.292Z,21.11
2022-08-02T07:21:56.352Z,20.97
2022-08-02T07:24:53.882Z,20.95
2022-08-02T07:27:56.568Z,21.21
2022-08-02T07:30:58.835Z,21.50
2022-08-02T07:34:01.027Z,21.67
2022-08-02T07:37:03.875Z,21.73
2022-08-02T07:40:13.463Z,21.97
2022-08-02T07:43:17.326Z,22.32
2022-08-02T07:46:20.732Z,22.30
2022-08-02T07:49:22.880Z,22.69
2022-08-02T07:52:25.461Z,22.81
2022-08-02T07:55:38.971Z,22.60
2022-08-02T07:58:43.959Z,22.63
2022-08-02T08:01:46.602Z,22.58
2022-08-02T08:04:48.933Z,22.50
2022-08-02T08:07:50.947Z,22.43
2022-08-02T08:10:55.072Z,22.23
2022-08-02T08:13:57.329Z,22.53
2022-08-02T08:17:04.058Z,22.36
2022-08-02T08:20:06.799Z,22.79
2022-08-02T08:23:09.862Z,23.04
2022-08-02T08:26:15.742Z,23.26
2022-08-02T08:29:18.245Z,23.28
2022-08-02T08:32:20.677Z,23.70
2022-08-02T08:35:23.888Z,24.44
2022-08-02T08:38:26.165Z,24.18
2022-08-02T08:41:31.057Z,24.34
2022-08-02T08:44:34.262Z,23.92
2022-08-02T08:47:41.965Z,24.18
2022-08-02T08:51:07.108Z,24.32
2022-08-02T08:54:13.145Z,24.54
2022-08-02T08:57:18.215Z,24.64
2022-08-02T09:00:22.206Z,25.16
2022-08-02T09:03:24.257Z,25.39
2022-08-02T09:06:26.669Z,25.50
2022-08-02T09:09:29.041Z,25.35
2022-08-02T09:12:31.178Z,25.71
2022-08-02T09:15:33.306Z,25.94
2022-08-02T09:18:38.783Z,26.13
2022-08-02T09:21:40.668Z,26.17
2022-08-02T09:24:47.974Z,25.94
2022-08-02T09:27:50.555Z,25.67
2022-08-02T09:30:53.528Z,24.99
2022-08-02T09:33:58.404Z,24.48
2022-08-02T09:37:00.886Z,24.65
2022-08-02T09:40:05.245Z,25.27
2022-08-02T09:43:09.373Z,24.93
2022-08-02T09:46:26.198Z,24.54
2022-08-02T09:49:28.795Z,24.13
2022-08-02T09:52:42.993Z,23.80
2022-08-02T09:55:56.277Z,24.06
2022-08-02T09:58:58.379Z,24.60
2022-08-02T10:02:16.904Z,24.79
2022-08-02T10:05:21.582Z,24.79
2022-08-02T10:08:26.703Z,24.93
2022-08-02T10:11:29.117Z,24.92
2022-08-02T10:14:34.345Z,24.89
2022-08-02T10:17:37.826Z,24.95
2022-08-02T10:20:45.359Z,24.65
2022-08-02T10:23:49.799Z,24.79
2022-08-02T10:26:52.605Z,25.02
2022-08-02T10:29:58.055Z,25.35
2022-08-02T10:33:02.649Z,24.88
2022-08-02T10:36:07.633Z,25.18
2022-08-02T10:39:11.921Z,25.93
2022-08-02T10:42:44.082Z,26.76
2022-08-02T10:45:50.711Z,26.34
2022-08-02T10:52:42.493Z,25.45
2022-08-02T10:55:46.572Z,25.19
2022-08-02T10:59:23.884Z,25.70
2022-08-02T11:02:39.273Z,25.91
2022-08-02T11:05:43.042Z,25.83
2022-08-02T11:08:45.979Z,25.74
2022-08-02T11:12:09.580Z,26.24
2022-08-02T11:15:12.055Z,26.00
2022-08-02T11:18:16.199Z,25.74
2022-08-02T11:21:20.948Z,26.00
2022-08-02T11:24:30.555Z,26.05
2022-08-02T11:27:33.166Z,25.97
2022-08-02T11:30:36.850Z,25.66
2022-08-02T11:33:40.078Z,25.40
2022-08-02T11:36:52.323Z,25.23
2022-08-02T11:39:54.209Z,25.39
2022-08-02T11:42:56.530Z,25.66
2022-08-02T11:46:04.272Z,26.18
2022-08-02T11:49:17.603Z,25.57
2022-08-02T11:52:19.644Z,25.66
2022-08-02T11:55:29.623Z,26.56
2022-08-02T11:58:33.070Z,26.65
2022-08-02T12:01:45.246Z,26.17
2022-08-02T12:04:58.437Z,25.69
2022-08-02T12:08:01.204Z,25.88
2022-08-02T12:11:04.197Z,26.17
2022-08-02T12:14:07.034Z,26.14
2022-08-02T12:17:29.161Z,25.66
2022-08-02T12:20:37.968Z,25.93
2022-08-02T12:23:59.797Z,25.53
2022-08-02T12:27:03.227Z,25.54
2022-08-02T12:30:09.704Z,25.20
2022-08-02T12:33:12.909Z,25.12
2022-08-02T12:36:20.382Z,25.57
2022-08-02T12:39:38.162Z,26.25
2022-08-02T12:42:48.248Z,26.45
2022-08-02T12:45:54.077Z,26.18
2022-08-02T12:49:17.001Z,26.24
2022-08-02T12:52:23.474Z,26.21
2022-08-02T12:56:02.107Z,26.89
2022-08-02T12:58:51.234Z,27.97
2022-08-02T13:01:54.321Z,26.92
2022-08-02T13:05:00.052Z,26.17
2022-08-02T13:08:03.971Z,25.87
2022-08-02T13:11:06.256Z,25.73
2022-08-02T13:14:08.597Z,25.78
2022-08-02T13:17:11.830Z,26.07
2022-08-02T13:20:14.859Z,26.71
2022-08-02T13:23:21.323Z,26.85
2022-08-02T13:26:26.436Z,27.17
2022-08-02T13:29:32.004Z,28.04
2022-08-02T13:32:34.266Z,27.57
2022-08-02T13:35:36.564Z,28.12
2022-08-02T13:38:38.691Z,28.14
2022-08-02T13:41:41.106Z,28.21
2022-08-02T13:44:43.581Z,28.26
2022-08-02T13:48:03.449Z,27.65
2022-08-02T13:51:12.168Z,28.15
2022-08-02T13:54:17.655Z,28.73
2022-08-02T13:57:19.688Z,27.80
2022-08-02T14:00:35.329Z,27.83
2022-08-02T14:04:07.881Z,26.96
2022-08-02T14:07:00.091Z,26.55
2022-08-02T14:10:02.195Z,26.52
2022-08-02T14:13:04.562Z,26.44
2022-08-02T14:16:07.553Z,26.32
2022-08-02T14:19:15.866Z,25.77
2022-08-02T14:22:19.106Z,25.56
2022-08-02T14:25:21.822Z,25.53
2022-08-02T14:28:25.655Z,25.71
2022-08-02T14:31:29.300Z,25.73
2022-08-02T14:34:31.391Z,25.76
2022-08-02T14:37:34.444Z,25.76
2022-08-02T14:40:36.666Z,25.86
2022-08-02T14:43:57.486Z,25.80
2022-08-02T14:46:59.895Z,26.58
2022-08-02T14:50:02.534Z,26.53
2022-08-02T14:53:04.968Z,26.22
2022-08-02T14:56:07.300Z,25.49
2022-08-02T14:59:09.864Z,25.46
2022-08-02T15:02:13.235Z,25.26
2022-08-02T15:05:16.281Z,25.18
2022-08-02T15:08:18.722Z,25.18
2022-08-02T15:11:20.743Z,25.25
2022-08-02T15:14:26.282Z,25.11
2022-08-02T15:17:28.843Z,25.05
2022-08-02T15:20:32.149Z,24.91
2022-08-02T15:23:38.467Z,24.82
2022-08-02T15:26:40.995Z,24.78
2022-08-02T15:29:44.346Z,24.65
2022-08-02T15:32:53.136Z,24.72
2022-08-02T15:35:56.389Z,24.74
2022-08-02T15:38:58.704Z,24.71
2022-08-02T15:42:00.660Z,24.62
2022-08-02T15:45:03.196Z,24.52
2022-08-02T15:48:05.620Z,24.47
2022-08-02T15:51:08.215Z,24.54
2022-08-02T15:54:10.295Z,24.54
2022-08-02T15:57:12.784Z,24.47
2022-08-02T16:00:18.892Z,24.38
2022-08-02T16:03:22.348Z,24.30
2022-08-02T16:06:25.970Z,24.28
2022-08-02T16:09:28.521Z,24.27
2022-08-02T16:12:32.180Z,24.28
2022-08-02T16:15:34.910Z,24.25
2022-08-02T16:18:37.127Z,24.31
2022-08-02T16:21:39.544Z,24.44
2022-08-02T16:24:41.693Z,24.47
2022-08-02T16:28:06.217Z,24.72
2022-08-02T16:31:11.343Z,24.96
2022-08-02T16:34:14.437Z,25.09
2022-08-02T16:37:16.574Z,24.95
2022-08-02T16:40:20.191Z,24.60
2022-08-02T16:43:22.500Z,24.41
2022-08-02T16:46:25.048Z,24.44
2022-08-02T16:50:05.182Z,24.48
2022-08-02T16:52:50.213Z,24.52
2022-08-02T16:55:53.325Z,24.40
2022-08-02T16:58:59.760Z,24.40
2022-08-02T17:02:15.099Z,24.35
2022-08-02T17:05:21.207Z,24.31
2022-08-02T17:08:23.696Z,24.17
2022-08-02T17:11:45.328Z,24.01
2022-08-02T17:14:54.796Z,23.93
2022-08-02T17:17:58.457Z,23.93
2022-08-02T17:21:04.044Z,23.80
2022-08-02T17:24:08.222Z,23.77
2022-08-02T17:27:13.530Z,23.66
2022-08-02T17:30:26.593Z,23.60
2022-08-02T17:33:29.477Z,23.55
2022-08-02T17:36:34.044Z,23.43
2022-08-02T17:39:44.248Z,23.39
2022-08-02T17:42:54.495Z,23.29
2022-08-02T17:46:02.209Z,23.22
2022-08-02T17:49:17.863Z,23.15
2022-08-02T17:52:50.673Z,23.09
2022-08-02T17:55:51.077Z,23.02
2022-08-02T17:58:54.019Z,22.99
2022-08-02T18:02:03.612Z,22.95
2022-08-02T18:05:11.823Z,22.90
2022-08-02T18:08:16.150Z,22.85
2022-08-02T18:11:20.581Z,22.81
2022-08-02T18:14:46.212Z,22.75
2022-08-02T18:17:51.388Z,22.72
2022-08-02T18:21:15.357Z,22.67
2022-08-02T18:24:24.272Z,22.58
2022-08-02T18:27:26.821Z,22.48
2022-08-02T18:30:29.492Z,22.43
2022-08-02T18:33:59.270Z,22.34
2022-08-02T18:36:54.192Z,22.27
2022-08-02T18:39:56.571Z,22.23
2022-08-02T18:42:58.980Z,22.17
2022-08-02T18:46:15.527Z,22.14
2022-08-02T18:49:19.030Z,22.07
2022-08-02T18:52:31.205Z,22.04
2022-08-02T18:55:59.773Z,22.00
2022-08-02T18:58:59.329Z,21.96
2022-08-02T19:02:01.360Z,21.93
2022-08-02T19:05:03.961Z,21.86
2022-08-02T19:08:09.253Z,21.83
2022-08-02T19:11:12.424Z,21.79
2022-08-02T19:14:24.241Z,21.76
2022-08-02T19:17:54.477Z,21.76
2022-08-02T19:20:58.222Z,21.80
2022-08-02T19:24:04.561Z,21.70
2022-08-02T19:27:13.212Z,21.66
2022-08-02T19:30:18.674Z,21.52
2022-08-02T19:34:04.590Z,21.46
2022-08-02T19:36:47.426Z,21.56
2022-08-02T19:39:51.316Z,21.48
2022-08-02T19:44:22.841Z,21.43
2022-08-02T19:46:20.580Z,21.41
2022-08-02T19:49:39.366Z,21.31
2022-08-02T19:52:43.363Z,21.19
2022-08-02T19:59:13.405Z,21.04
2022-08-02T20:02:17.808Z,20.92
2022-08-02T20:05:23.875Z,20.88
2022-08-02T20:08:35.431Z,20.88
2022-08-02T20:11:38.494Z,20.87
2022-08-02T20:14:50.774Z,20.78
2022-08-02T20:17:53.676Z,20.66
2022-08-02T20:20:58.525Z,20.54
2022-08-02T20:24:00.601Z,20.61
2022-08-02T20:27:04.081Z,20.73
2022-08-02T20:30:06.870Z,20.68
2022-08-02T20:33:21.669Z,20.83
2022-08-02T20:36:25.885Z,20.74
2022-08-02T20:39:43.671Z,20.81
2022-08-02T20:42:48.159Z,20.78
2022-08-02T20:45:51.057Z,20.77
2022-08-02T20:48:53.659Z,20.68
2022-08-02T20:51:59.098Z,20.68
2022-08-02T20:55:01.836Z,20.67
2022-08-02T20:58:04.712Z,20.70
2022-08-02T21:01:10.143Z,20.66
2022-08-02T21:04:17.315Z,20.64
2022-08-02T21:07:23.033Z,20.66
2022-08-02T21:10:29.755Z,20.67
2022-08-02T21:13:31.657Z,20.66
2022-08-02T21:16:34.850Z,20.60
2022-08-02T21:19:44.425Z,20.51
2022-08-02T21:22:47.060Z,20.50
2022-08-02T21:25:57.423Z,20.50
2022-08-02T21:29:04.000Z,20.48
2022-08-02T21:32:07.196Z,20.48
2022-08-02T21:35:11.538Z,20.47
2022-08-02T21:38:35.114Z,20.43
2022-08-02T21:41:46.255Z,20.43
2022-08-02T21:44:50.745Z,20.41
2022-08-02T21:47:53.571Z,20.37
2022-08-02T21:50:55.919Z,20.33
2022-08-02T21:54:17.591Z,20.36
2022-08-02T21:57:22.669Z,20.32
2022-08-02T22:00:28.344Z,20.36
2022-08-02T22:03:31.921Z,20.34
2022-08-02T22:06:35.720Z,20.32
2022-08-02T22:09:44.277Z,20.27
2022-08-02T22:12:47.837Z,20.23
2022-08-02T22:15:50.052Z,20.22
2022-08-02T22:18:53.853Z,20.23
2022-08-02T22:21:57.936Z,20.23
2022-08-02T22:25:00.509Z,20.15
2022-08-02T22:28:37.311Z,20.08
2022-08-02T22:31:41.029Z,20.03
2022-08-02T22:34:51.779Z,19.99
2022-08-02T22:38:14.804Z,19.90
2022-08-02T22:41:22.757Z,19.93
2022-08-02T22:44:25.055Z,19.89
2022-08-02T22:47:27.570Z,19.90
2022-08-02T22:50:30.529Z,19.95
2022-08-02T22:53:36.121Z,19.96
2022-08-02T22:56:38.860Z,19.85
2022-08-02T22:58:53.872Z,21.12
2022-08-02T22:59:46.765Z,19.85
2022-08-02T23:02:51.179Z,19.83
2022-08-02T23:05:53.660Z,19.83
2022-08-02T23:08:55.893Z,19.82
2022-08-02T23:11:57.963Z,19.75
2022-08-02T23:15:00.795Z,19.68
2022-08-02T23:18:21.398Z,19.55
2022-08-02T23:21:45.821Z,19.47
2022-08-02T23:24:49.325Z,19.51
2022-08-02T23:27:51.681Z,19.42
2022-08-02T23:30:54.088Z,19.45
2022-08-02T23:34:04.259Z,19.52
2022-08-02T23:37:08.342Z,19.52
2022-08-02T23:40:11.127Z,19.54
2022-08-02T23:43:15.339Z,19.57
2022-08-02T23:46:18.223Z,19.51
2022-08-02T23:49:21.980Z,19.50
2022-08-02T23:52:25.189Z,19.44
2022-08-02T23:55:27.310Z,19.42
2022-08-02T23:58:32.959Z,19.47
